Time;durP1;ratioP1;P1;durP2;ratioP2;P2;SDS_P1;SDS_P2;PMS_P1;PMS_P2;Temp;Humidity;BMP_temperature;BMP_pressure;BME280_temperature;BME280_humidity;BME280_pressure;Samples;Min_cycle;Max_cycle;Signal;HPM_P1;HPM_P2
2021/06/03 00:00:01;;;;;;;7.70;5.70;;;15.80;99.90;;;;;;6294993;28;20394;-79
2021/06/03 00:03:02;;;;;;;7.70;5.50;;;15.80;99.90;;;;;;6275399;28;20469;-81
2021/06/03 00:06:05;;;;;;;5.93;5.32;;;15.80;99.90;;;;;;6292864;28;20379;-79
2021/06/03 00:09:07;;;;;;;6.45;5.85;;;15.70;99.90;;;;;;6276268;28;20020;-78
2021/06/03 00:12:08;;;;;;;6.82;5.63;;;15.50;99.90;;;;;;6276407;28;20029;-79
2021/06/03 00:15:11;;;;;;;6.07;5.23;;;15.80;99.90;;;;;;6292151;28;20031;-78
2021/06/03 00:18:12;;;;;;;5.93;5.10;;;15.80;99.90;;;;;;6316884;28;20055;-79
2021/06/03 00:21:12;;;;;;;6.28;5.68;;;15.80;99.90;;;;;;6317340;28;20027;-78
2021/06/03 00:24:13;;;;;;;8.73;6.03;;;15.50;99.90;;;;;;6283198;28;20040;-79
2021/06/03 00:27:14;;;;;;;6.63;5.53;;;;;;;;;;6300057;28;20382;-78
2021/06/03 00:30:15;;;;;;;7.72;5.85;;;15.60;99.90;;;;;;6318406;28;20024;-81
2021/06/03 00:33:15;;;;;;;6.30;5.43;;;15.40;99.90;;;;;;6318281;28;20111;-79
2021/06/03 00:36:16;;;;;;;6.68;5.40;;;15.40;99.90;;;;;;6299692;28;20039;-79
2021/06/03 00:39:17;;;;;;;6.28;5.78;;;15.40;99.90;;;;;;6318637;28;20063;-79
2021/06/03 00:42:17;;;;;;;6.40;5.55;;;15.70;99.90;;;;;;6316375;28;20051;-79
2021/06/03 00:45:25;;;;;;;6.55;5.95;;;15.60;99.90;;;;;;6316610;28;20123;-80
2021/06/03 00:48:27;;;;;;;6.50;5.53;;;;;;;;;;6300822;28;20386;-79
2021/06/03 00:51:27;;;;;;;6.78;6.13;;;15.50;99.90;;;;;;6317650;28;20024;-79
2021/06/03 00:54:28;;;;;;;8.70;6.35;;;15.60;99.90;;;;;;6299978;28;20497;-79
2021/06/03 00:57:28;;;;;;;5.97;5.40;;;15.60;99.90;;;;;;6299885;28;20067;-79
2021/06/03 01:00:29;;;;;;;5.78;5.25;;;15.60;99.90;;;;;;6299451;28;20474;-78
2021/06/03 01:03:30;;;;;;;5.82;4.82;;;15.70;99.90;;;;;;6316088;28;20039;-79
2021/06/03 01:06:31;;;;;;;8.10;5.35;;;;;;;;;;6299315;28;20427;-79
2021/06/03 01:09:37;;;;;;;6.78;5.47;;;15.50;99.90;;;;;;6297511;28;20078;-79
2021/06/03 01:13:20;;;;;;;5.97;5.30;;;15.60;99.90;;;;;;6291105;28;20059;-81
2021/06/03 01:16:21;;;;;;;5.97;4.88;;;;;;;;;;6215998;28;20500;-79
2021/06/03 01:19:34;;;;;;;5.43;4.93;;;15.40;99.90;;;;;;6223300;28;20068;-79
2021/06/03 01:22:55;;;;;;;8.43;5.65;;;15.40;99.90;;;;;;6223834;28;20033;-79
2021/06/03 01:25:56;;;;;;;7.47;5.40;;;15.50;99.90;;;;;;6198917;28;20128;-79
2021/06/03 01:28:56;;;;;;;5.53;4.93;;;15.50;99.90;;;;;;6223280;28;20033;-80
2021/06/03 01:31:57;;;;;;;5.88;5.25;;;15.30;99.90;;;;;;6223350;28;20408;-79
2021/06/03 01:34:58;;;;;;;5.88;5.30;;;15.30;99.90;;;;;;6206988;28;20495;-80
2021/06/03 01:37:59;;;;;;;6.10;5.50;;;15.40;99.90;;;;;;6210901;28;20029;-79
2021/06/03 01:41:00;;;;;;;6.65;5.60;;;15.50;99.90;;;;;;6222978;28;20046;-79
2021/06/03 01:44:01;;;;;;;7.28;5.97;;;15.50;99.90;;;;;;6223080;28;20053;-79
2021/06/03 01:47:03;;;;;;;6.15;5.60;;;15.60;99.90;;;;;;6260265;28;20032;-82
2021/06/03 01:50:05;;;;;;;5.90;5.30;;;14.80;99.90;;;;;;6290913;28;20125;-81
2021/06/03 01:53:06;;;;;;;7.10;5.63;;;;;;;;;;6284731;28;20385;-79
2021/06/03 01:56:10;;;;;;;9.45;5.38;;;15.60;99.90;;;;;;6298543;28;20032;-79
2021/06/03 01:59:11;;;;;;;6.43;5.63;;;15.30;99.90;;;;;;6282586;28;20087;-79
2021/06/03 02:02:12;;;;;;;6.55;5.47;;;15.30;99.90;;;;;;6316735;28;20634;-79
2021/06/03 02:05:13;;;;;;;6.85;5.65;;;;;;;;;;6315228;28;20036;-82
2021/06/03 02:08:13;;;;;;;6.00;5.40;;;15.10;99.90;;;;;;6316873;28;20423;-79
2021/06/03 02:11:14;;;;;;;5.63;5.07;;;15.00;99.90;;;;;;6315868;28;20035;-79
2021/06/03 02:14:16;;;;;;;8.93;4.97;;;15.30;99.90;;;;;;6316439;28;20524;-81
2021/06/03 02:17:18;;;;;;;6.65;6.00;;;15.30;99.90;;;;;;6293417;28;20043;-79
2021/06/03 02:20:24;;;;;;;7.20;6.03;;;15.00;99.90;;;;;;6292875;28;20078;-79
2021/06/03 02:23:25;;;;;;;8.13;6.20;;;15.60;99.90;;;;;;6290349;28;20032;-81
2021/06/03 02:26:26;;;;;;;6.53;5.45;;;15.00;99.90;;;;;;6277552;28;20111;-79
2021/06/03 02:29:26;;;;;;;7.70;6.43;;;;;;;;;;6278014;28;20033;-81
2021/06/03 02:32:30;;;;;;;6.00;5.40;;;15.00;99.90;;;;;;6300830;28;20028;-79
2021/06/03 02:35:31;;;;;;;6.22;5.60;;;15.00;99.90;;;;;;6291827;28;20537;-82
2021/06/03 02:38:32;;;;;;;6.30;5.70;;;15.30;99.90;;;;;;6294643;28;20028;-79
2021/06/03 02:41:33;;;;;;;8.20;5.43;;;15.40;99.90;;;;;;6277631;28;20084;-79
2021/06/03 02:44:35;;;;;;;11.00;5.75;;;15.30;99.90;;;;;;6294368;28;20089;-81
2021/06/03 02:47:38;;;;;;;6.45;5.80;;;15.30;99.90;;;;;;6277945;28;20715;-79
2021/06/03 02:50:38;;;;;;;7.80;5.60;;;15.30;99.90;;;;;;6262061;28;20090;-80
2021/06/03 02:53:39;;;;;;;7.47;6.25;;;15.50;99.90;;;;;;6294215;28;20032;-79
2021/06/03 02:56:40;;;;;;;7.18;6.35;;;14.70;99.90;;;;;;6277625;28;20028;-78
2021/06/03 02:59:40;;;;;;;6.32;5.65;;;15.00;99.90;;;;;;6277714;28;20044;-80
2021/06/03 03:02:41;;;;;;;7.57;5.68;;;14.90;99.90;;;;;;6311327;28;20032;-79
2021/06/03 03:05:42;;;;;;;7.47;5.85;;;15.00;99.90;;;;;;6295990;28;20040;-79
2021/06/03 03:08:42;;;;;;;6.20;5.60;;;14.80;99.90;;;;;;6287430;28;20035;-80
2021/06/03 03:11:43;;;;;;;8.00;5.30;;;14.80;99.90;;;;;;6296244;28;20462;-78
2021/06/03 03:14:44;;;;;;;6.15;5.55;;;14.90;99.90;;;;;;6277475;28;20032;-81
2021/06/03 03:17:44;;;;;;;6.38;5.78;;;15.00;99.90;;;;;;6294107;28;20063;-80
2021/06/03 03:20:45;;;;;;;7.97;6.07;;;14.90;99.90;;;;;;6299068;28;20031;-79
2021/06/03 03:23:46;;;;;;;6.28;5.68;;;15.00;99.90;;;;;;6301963;28;20062;-78
2021/06/03 03:26:46;;;;;;;7.07;6.00;;;15.20;99.90;;;;;;6318573;28;20054;-80
2021/06/03 03:29:48;;;;;;;6.60;5.65;;;15.00;99.90;;;;;;6297051;28;20035;-80
2021/06/03 03:32:49;;;;;;;7.47;5.88;;;15.00;99.90;;;;;;6302162;28;20028;-79
2021/06/03 03:35:49;;;;;;;6.30;5.70;;;14.90;99.90;;;;;;6299257;28;20546;-79
2021/06/03 03:38:50;;;;;;;8.68;6.80;;;14.90;99.90;;;;;;6300833;28;20039;-79
2021/06/03 03:41:51;;;;;;;7.95;6.22;;;;;;;;;;6300956;28;20051;-79
2021/06/03 03:44:52;;;;;;;8.18;5.65;;;14.80;99.90;;;;;;6318235;28;20085;-81
2021/06/03 03:47:53;;;;;;;7.22;5.63;;;14.80;99.90;;;;;;6312421;28;20103;-78
2021/06/03 03:50:54;;;;;;;6.47;5.78;;;14.80;99.90;;;;;;6276492;28;20531;-80
2021/06/03 03:53:54;;;;;;;6.00;5.40;;;14.80;99.90;;;;;;6305224;28;20028;-79
2021/06/03 03:56:55;;;;;;;7.00;5.95;;;14.90;99.90;;;;;;6317691;28;20097;-80
2021/06/03 03:59:56;;;;;;;6.32;5.70;;;14.90;99.90;;;;;;6276641;28;20039;-80
2021/06/03 04:02:57;;;;;;;6.78;6.07;;;14.90;99.90;;;;;;6292975;28;20382;-79
2021/06/03 04:05:58;;;;;;;6.03;5.45;;;;;;;;;;6292891;28;20038;-81
2021/06/03 04:08:58;;;;;;;6.55;5.57;;;15.00;99.90;;;;;;6276123;28;20024;-80
2021/06/03 04:11:59;;;;;;;7.47;5.80;;;15.00;99.90;;;;;;6295237;28;20477;-81
2021/06/03 04:15:00;;;;;;;6.00;5.32;;;15.10;99.90;;;;;;6276161;28;20025;-79
2021/06/03 04:18:00;;;;;;;7.00;5.80;;;15.20;99.90;;;;;;6276041;28;20466;-81
2021/06/03 04:21:01;;;;;;;11.00;6.30;;;15.20;99.90;;;;;;6275863;28;20068;-78
2021/06/03 04:24:02;;;;;;;7.88;5.82;;;15.20;99.90;;;;;;6291947;28;20036;-82
2021/06/03 04:27:03;;;;;;;7.50;6.07;;;15.10;99.90;;;;;;6292572;28;20101;-79
2021/06/03 04:30:12;;;;;;;7.13;5.95;;;15.40;99.90;;;;;;6304053;28;20024;-82
2021/06/03 04:33:15;;;;;;;6.35;5.75;;;15.20;99.90;;;;;;6284786;28;20031;-79
2021/06/03 04:36:16;;;;;;;7.38;5.55;;;15.30;99.90;;;;;;6317014;28;20066;-79
2021/06/03 04:39:16;;;;;;;6.43;5.82;;;15.70;99.90;;;;;;6300368;28;20028;-80
2021/06/03 04:42:17;;;;;;;10.98;6.03;;;15.40;99.90;;;;;;6317652;28;20047;-79
2021/06/03 04:45:18;;;;;;;8.85;6.05;;;15.50;99.90;;;;;;6318305;28;20061;-79
2021/06/03 04:48:19;;;;;;;6.38;5.75;;;15.50;99.90;;;;;;6284353;28;20047;-79
2021/06/03 04:51:19;;;;;;;6.47;5.30;;;15.80;99.90;;;;;;6299764;28;20028;-79
2021/06/03 04:54:20;;;;;;;5.88;5.20;;;16.10;99.90;;;;;;6299952;28;20036;-80
2021/06/03 04:57:21;;;;;;;9.07;5.22;;;;;;;;;;6299656;28;20052;-81
2021/06/03 05:00:24;;;;;;;5.35;4.88;;;17.00;99.90;;;;;;6316441;28;20020;-81
2021/06/03 05:03:25;;;;;;;6.93;4.57;;;17.60;99.90;;;;;;6316123;28;20032;-81
2021/06/03 05:06:25;;;;;;;5.72;4.82;;;18.00;99.90;;;;;;6282939;28;20032;-79
2021/06/03 05:09:26;;;;;;;5.93;5.07;;;17.90;99.90;;;;;;6299433;28;20393;-81
2021/06/03 05:12:27;;;;;;;5.18;4.68;;;18.10;99.90;;;;;;6317441;28;20110;-79
2021/06/03 05:15:28;;;;;;;8.00;5.07;;;17.60;99.90;;;;;;6299023;28;20035;-79
2021/06/03 05:18:29;;;;;;;7.22;4.90;;;;;;;;;;6315223;28;20024;-79
2021/06/03 05:21:30;;;;;;;5.82;5.18;;;;;;;;;;6315868;28;20128;-79
2021/06/03 05:24:31;;;;;;;6.35;5.15;;;;;;;;;;6298920;28;20039;-79
2021/06/03 05:27:31;;;;;;;5.50;4.63;;;18.40;99.90;;;;;;6317652;28;20367;-79
2021/06/03 05:30:32;;;;;;;9.43;6.03;;;18.10;99.90;;;;;;6315618;28;20075;-81
2021/06/03 05:33:33;;;;;;;7.28;5.53;;;;;;;;;;6317367;28;20028;-81
2021/06/03 05:36:34;;;;;;;6.63;5.60;;;18.50;99.90;;;;;;6315835;28;20478;-79
2021/06/03 05:39:35;;;;;;;5.82;4.88;;;;;;;;;;6315578;28;20032;-81
2021/06/03 05:42:35;;;;;;;5.30;4.70;;;19.30;99.90;;;;;;6317229;28;20032;-80
2021/06/03 05:45:36;;;;;;;7.05;4.90;;;19.90;99.70;;;;;;6316881;28;20044;-79
2021/06/03 05:48:37;;;;;;;5.82;5.22;;;19.90;99.70;;;;;;6316052;28;20031;-79
2021/06/03 05:51:39;;;;;;;8.00;6.13;;;19.80;99.90;;;;;;6316930;28;20044;-79
2021/06/03 05:54:39;;;;;;;6.28;5.22;;;19.30;99.90;;;;;;6315851;28;20028;-79
2021/06/03 05:57:40;;;;;;;6.88;5.50;;;19.10;99.90;;;;;;6315426;28;20486;-79
2021/06/03 06:00:41;;;;;;;7.22;5.60;;;18.90;99.90;;;;;;6277884;28;20032;-79
2021/06/03 06:07:03;;;;;;;7.32;6.03;;;18.60;99.90;;;;;;6287616;28;20040;-81
2021/06/03 06:10:05;;;;;;;7.15;4.88;;;18.70;99.90;;;;;;6296190;28;20032;-79
2021/06/03 06:13:06;;;;;;;6.05;5.28;;;18.50;99.90;;;;;;6279182;28;20059;-80
2021/06/03 06:16:06;;;;;;;6.35;4.95;;;18.40;99.90;;;;;;6262137;28;20488;-78
2021/06/03 06:19:07;;;;;;;6.13;5.00;;;18.50;99.90;;;;;;6295469;28;20652;-80
2021/06/03 06:22:08;;;;;;;5.30;4.80;;;18.40;99.90;;;;;;6290433;28;20064;-80
2021/06/03 06:25:09;;;;;;;5.78;4.93;;;18.40;99.90;;;;;;6261948;28;20562;-78
2021/06/03 06:28:13;;;;;;;6.85;5.20;;;18.50;99.90;;;;;;6295723;28;20025;-80
2021/06/03 06:31:14;;;;;;;5.90;5.30;;;18.60;99.90;;;;;;6292068;28;20031;-80
2021/06/03 06:34:15;;;;;;;6.75;5.18;;;18.90;99.90;;;;;;6303145;28;20374;-80
2021/06/03 06:37:15;;;;;;;8.57;5.70;;;20.60;99.90;;;;;;6316266;28;20081;-81
2021/06/03 06:40:16;;;;;;;6.18;5.30;;;20.70;99.90;;;;;;6319103;28;20059;-79
2021/06/03 06:43:17;;;;;;;5.65;5.10;;;;;;;;;;6302350;28;20040;-82
2021/06/03 06:46:18;;;;;;;5.28;4.78;;;23.10;95.20;;;;;;6303268;28;20110;-79
2021/06/03 06:49:19;;;;;;;4.20;3.80;;;23.60;95.30;;;;;;6319445;28;20614;-82
2021/06/03 06:52:19;;;;;;;6.78;4.40;;;24.50;91.50;;;;;;6302409;28;20111;-79
2021/06/03 06:55:20;;;;;;;5.15;4.20;;;25.40;90.00;;;;;;6255593;28;20028;-81
2021/06/03 06:58:21;;;;;;;4.55;3.88;;;25.80;87.10;;;;;;6277587;28;20039;-82
2021/06/03 07:01:21;;;;;;;6.78;3.97;;;26.30;84.70;;;;;;6277944;28;20024;-80
2021/06/03 07:04:22;;;;;;;4.40;4.00;;;26.70;80.70;;;;;;6295899;28;20047;-79
2021/06/03 07:07:22;;;;;;;7.47;4.40;;;26.80;81.30;;;;;;6294335;28;20024;-81
2021/06/03 07:10:23;;;;;;;4.83;3.60;;;26.80;81.00;;;;;;6277911;28;20032;-80
2021/06/03 07:13:23;;;;;;;6.90;3.80;;;26.80;81.40;;;;;;6270328;28;20094;-83
2021/06/03 07:21:00;;;;;;;5.80;3.97;;;26.10;92.80;;;;;;6303726;28;20020;-77
2021/06/03 07:24:01;;;;;;;6.20;4.20;;;;;;;;;;6305995;28;20033;-80
2021/06/03 07:27:05;;;;;;;4.73;4.20;;;26.20;82.50;;;;;;6293292;28;20379;-79
2021/06/03 07:30:07;;;;;;;7.05;4.53;;;26.80;91.90;;;;;;6295938;28;20052;-83
2021/06/03 07:33:07;;;;;;;4.35;3.58;;;27.60;90.50;;;;;;6267118;28;20027;-81
2021/06/03 07:36:08;;;;;;;7.70;4.10;;;28.80;89.60;;;;;;6285230;28;20020;-80
2021/06/03 07:39:09;;;;;;;3.90;3.57;;;;;;;;;;6281540;28;20535;-87
2021/06/03 07:42:11;;;;;;;8.18;3.90;;;29.60;79.80;;;;;;6279801;28;20080;-82
2021/06/03 07:45:13;;;;;;;5.10;3.40;;;29.90;77.20;;;;;;6261130;28;20182;-84
2021/06/03 07:48:14;;;;;;;3.60;3.30;;;;;;;;;;6259826;28;20035;-84
2021/06/03 07:51:14;;;;;;;5.93;3.80;;;30.50;69.10;;;;;;6263455;28;20032;-83
2021/06/03 07:54:15;;;;;;;4.07;3.63;;;;;;;;;;6247359;28;20032;-82
2021/06/03 07:57:16;;;;;;;5.82;4.10;;;30.20;62.00;;;;;;6301244;28;20032;-80
2021/06/03 08:00:18;;;;;;;5.03;4.07;;;30.50;62.20;;;;;;6284267;28;20085;-81
2021/06/03 08:03:18;;;;;;;6.97;3.83;;;30.90;60.20;;;;;;6284019;28;20028;-83
2021/06/03 08:06:19;;;;;;;4.83;3.57;;;30.90;59.80;;;;;;6319234;28;20040;-84
2021/06/03 08:09:19;;;;;;;6.07;3.30;;;30.20;58.90;;;;;;6284308;28;20025;-81
2021/06/03 08:12:20;;;;;;;6.43;3.40;;;29.80;59.60;;;;;;6300491;28;20107;-79
2021/06/03 08:15:21;;;;;;;5.07;3.63;;;29.30;59.20;;;;;;6283138;28;20033;-80
2021/06/03 08:18:22;;;;;;;4.65;3.42;;;29.10;59.60;;;;;;6272491;28;20025;-81
2021/06/03 08:21:23;;;;;;;5.77;4.27;;;28.70;62.60;;;;;;6244772;28;20123;-80
2021/06/03 08:24:23;;;;;;;5.85;3.65;;;28.90;63.20;;;;;;6263814;28;20044;-80
2021/06/03 08:27:24;;;;;;;6.17;3.80;;;29.40;60.10;;;;;;6266860;28;20047;-81
2021/06/03 08:30:25;;;;;;;5.53;3.43;;;29.80;58.90;;;;;;6273836;28;20466;-80
2021/06/03 08:33:26;;;;;;;4.30;3.83;;;30.40;58.70;;;;;;6278916;28;20035;-82
2021/06/03 08:36:27;;;;;;;4.35;3.50;;;30.90;58.90;;;;;;6257987;28;20032;-83
2021/06/03 08:39:27;;;;;;;5.13;4.05;;;31.60;57.40;;;;;;6258144;28;20123;-83
2021/06/03 08:42:28;;;;;;;8.90;3.57;;;32.30;55.80;;;;;;6275937;28;20043;-86
2021/06/03 08:45:30;;;;;;;4.23;3.43;;;32.60;54.80;;;;;;6258514;28;20505;-85
2021/06/03 08:48:34;;;;;;;6.03;3.80;;;32.90;54.40;;;;;;6251216;28;20035;-83
2021/06/03 08:51:34;;;;;;;3.58;3.20;;;31.90;53.60;;;;;;6281403;28;20393;-84
2021/06/03 08:54:38;;;;;;;4.70;3.63;;;31.30;57.00;;;;;;6242405;28;20029;-81
2021/06/03 08:57:38;;;;;;;5.05;3.80;;;31.30;55.20;;;;;;6270009;28;20036;-83
2021/06/03 09:00:39;;;;;;;6.83;4.40;;;30.90;70.30;;;;;;6242256;28;20024;-86
2021/06/03 09:03:40;;;;;;;5.55;3.90;;;30.80;55.20;;;;;;6248806;28;20352;-85
2021/06/03 09:06:41;;;;;;;6.35;3.70;;;29.70;75.90;;;;;;6279116;28;20486;-84
2021/06/03 09:09:42;;;;;;;8.13;4.10;;;;;;;;;;6251834;28;20111;-85
2021/06/03 09:12:42;;;;;;;5.25;3.83;;;29.10;59.40;;;;;;6249748;28;20029;-85
2021/06/03 09:15:51;;;;;;;5.13;3.77;;;28.80;79.90;;;;;;6263788;28;20426;-88
2021/06/03 09:18:53;;;;;;;5.80;3.40;;;28.80;61.70;;;;;;6272196;28;20047;-86
2021/06/03 09:21:54;;;;;;;6.82;4.05;;;28.70;62.00;;;;;;6263154;28;20126;-87
2021/06/03 09:24:54;;;;;;;3.63;3.20;;;28.70;61.10;;;;;;6249509;28;20375;-83
2021/06/03 09:27:55;;;;;;;4.77;3.37;;;28.70;63.80;;;;;;6284391;28;20032;-86
2021/06/03 09:31:09;;;;;;;5.90;3.67;;;29.10;59.40;;;;;;6266064;28;20051;-84
2021/06/03 09:34:19;;;;;;;5.85;3.88;;;29.20;55.50;;;;;;6253812;28;20110;-83
2021/06/03 09:37:20;;;;;;;5.68;3.90;;;29.00;58.20;;;;;;6275203;28;20076;-84
2021/06/03 09:40:21;;;;;;;6.93;4.10;;;29.00;60.50;;;;;;6247062;28;20053;-84
2021/06/03 09:43:23;;;;;;;6.18;3.88;;;28.80;61.90;;;;;;6247070;28;20032;-85
2021/06/03 09:46:24;;;;;;;7.38;3.85;;;28.70;62.70;;;;;;6250204;28;20040;-82
2021/06/03 09:49:37;;;;;;;6.33;3.97;;;28.70;62.50;;;;;;6277323;28;20398;-80
2021/06/03 09:52:38;;;;;;;5.18;3.80;;;28.90;62.10;;;;;;6252916;28;20169;-80
2021/06/03 09:55:39;;;;;;;6.13;4.07;;;29.40;90.20;;;;;;6246611;28;20036;-83
2021/06/03 09:58:40;;;;;;;8.13;4.10;;;30.60;67.40;;;;;;6230980;28;20462;-83
2021/06/03 10:01:41;;;;;;;5.05;3.60;;;;;;;;;;6262531;28;20430;-83
2021/06/03 10:04:52;;;;;;;5.65;3.92;;;31.40;58.60;;;;;;6279777;28;20028;-83
2021/06/03 10:07:56;;;;;;;7.30;3.88;;;31.30;57.00;;;;;;6262610;28;20036;-84
2021/06/03 10:10:57;;;;;;;6.38;3.70;;;31.40;59.40;;;;;;6246339;28;20043;-84
2021/06/03 10:14:11;;;;;;;4.83;3.87;;;31.60;58.70;;;;;;6279113;28;20403;-86
2021/06/03 10:17:13;;;;;;;5.97;3.80;;;31.20;54.30;;;;;;6245403;28;20039;-81
2021/06/03 10:20:18;;;;;;;5.40;3.95;;;30.80;63.60;;;;;;6298647;28;20024;-82
2021/06/03 10:23:21;;;;;;;5.00;3.35;;;31.20;57.90;;;;;;6262545;28;20035;-81
2021/06/03 10:26:22;;;;;;;5.18;3.80;;;31.80;52.60;;;;;;6261779;28;20028;-82
2021/06/03 10:29:22;;;;;;;5.60;3.70;;;31.60;54.60;;;;;;6279095;28;20029;-84
2021/06/03 10:32:26;;;;;;;5.77;3.90;;;31.70;55.50;;;;;;6279016;28;20267;-78
2021/06/03 10:35:28;;;;;;;9.50;3.80;;;31.30;54.30;;;;;;6296915;28;20078;-78
2021/06/03 10:38:29;;;;;;;7.15;4.28;;;30.50;54.40;;;;;;6277569;28;20028;-80
2021/06/03 10:41:29;;;;;;;6.30;3.70;;;29.90;56.30;;;;;;6296995;28;20626;-78
2021/06/03 10:44:30;;;;;;;5.50;3.67;;;30.60;57.50;;;;;;6305340;28;20282;-78
2021/06/03 10:47:30;;;;;;;5.80;3.80;;;31.30;56.60;;;;;;6285615;28;20063;-79
2021/06/03 10:50:36;;;;;;;6.33;3.80;;;31.40;55.70;;;;;;6286183;28;20258;-78
2021/06/03 10:53:45;;;;;;;6.97;4.20;;;31.50;57.30;;;;;;6286534;28;20548;-78
2021/06/03 10:57:06;;;;;;;7.50;4.03;;;31.60;58.70;;;;;;6279472;28;20373;-78
2021/06/03 11:00:25;;;;;;;5.75;3.75;;;31.40;56.10;;;;;;6301687;28;20124;-78
2021/06/03 11:03:41;;;;;;;5.88;4.50;;;31.30;56.60;;;;;;6320405;28;20040;-78
2021/06/03 11:06:43;;;;;;;6.60;3.88;;;31.40;55.20;;;;;;6283631;28;20472;-78
2021/06/03 11:09:44;;;;;;;5.35;4.05;;;31.50;56.80;;;;;;6285329;28;20028;-78
2021/06/03 11:13:12;;;;;;;4.93;3.75;;;31.70;56.10;;;;;;6303839;28;20036;-78
2021/06/03 11:16:16;;;;;;;7.03;3.90;;;31.70;56.40;;;;;;6246734;28;20059;-78
2021/06/03 11:19:25;;;;;;;4.63;3.35;;;31.70;54.90;;;;;;6260672;28;20040;-77
2021/06/03 11:22:25;;;;;;;7.47;4.10;;;31.40;54.90;;;;;;6270963;28;20037;-78
2021/06/03 11:25:38;;;;;;;7.00;3.77;;;31.20;56.10;;;;;;6295826;28;20079;-78
2021/06/03 11:28:39;;;;;;;6.88;4.45;;;31.20;56.30;;;;;;6260803;28;20302;-78
2021/06/03 11:31:59;;;;;;;5.43;3.90;;;31.40;57.20;;;;;;6270604;28;20029;-78
2021/06/03 11:35:02;;;;;;;4.57;3.53;;;31.40;56.70;;;;;;6278545;28;20024;-78
2021/06/03 11:38:03;;;;;;;4.55;3.70;;;31.30;56.40;;;;;;6277150;28;21132;-78
2021/06/03 11:41:03;;;;;;;6.87;4.17;;;31.00;56.50;;;;;;6277337;28;20048;-78
2021/06/03 11:44:11;;;;;;;4.57;3.87;;;30.80;58.30;;;;;;6295266;28;20032;-78
2021/06/03 11:47:11;;;;;;;7.82;4.22;;;30.90;58.70;;;;;;6295895;28;20039;-78
2021/06/03 11:50:15;;;;;;;6.40;3.83;;;30.80;57.50;;;;;;6295416;28;20060;-78
2021/06/03 11:53:17;;;;;;;5.45;4.03;;;30.90;58.40;;;;;;6309379;28;20488;-77
2021/06/03 11:56:20;;;;;;;6.72;4.00;;;30.70;57.10;;;;;;6301184;28;20028;-78
2021/06/03 11:59:51;;;;;;;4.55;3.83;;;30.60;57.20;;;;;;6300262;28;20031;-78
2021/06/03 12:02:52;;;;;;;6.13;3.70;;;30.50;58.20;;;;;;6303485;28;20036;-78
2021/06/03 12:05:55;;;;;;;8.13;3.87;;;30.50;58.80;;;;;;6284211;28;20044;-78
2021/06/03 12:08:57;;;;;;;6.55;3.53;;;30.50;58.10;;;;;;6268100;28;20040;-78
2021/06/03 12:11:59;;;;;;;9.90;3.08;;;30.50;54.60;;;;;;6283982;28;20397;-78
2021/06/03 12:15:00;;;;;;;5.70;3.75;;;30.40;55.10;;;;;;6273078;28;20055;-78
2021/06/03 12:18:03;;;;;;;4.80;3.47;;;30.30;62.00;;;;;;6318389;28;20034;-79
2021/06/03 12:21:04;;;;;;;6.70;3.53;;;30.20;56.70;;;;;;6300537;28;20462;-79
2021/06/03 12:24:05;;;;;;;5.20;3.03;;;30.20;56.10;;;;;;6283893;28;20541;-80
2021/06/03 12:27:07;;;;;;;5.03;3.58;;;30.10;53.30;;;;;;6300007;28;20036;-78
2021/06/03 12:30:28;;;;;;;7.07;3.08;;;30.10;53.60;;;;;;6266951;28;20024;-80
2021/06/03 12:33:29;;;;;;;7.82;3.45;;;30.30;55.80;;;;;;6276652;28;20040;-78
2021/06/03 12:36:30;;;;;;;8.68;3.40;;;30.50;52.60;;;;;;6294288;28;20033;-78
2021/06/03 12:39:37;;;;;;;7.40;3.05;;;30.50;55.30;;;;;;6308891;28;20058;-78
2021/06/03 12:42:37;;;;;;;10.02;3.72;;;30.60;55.00;;;;;;6300130;28;20047;-78
2021/06/03 12:45:40;;;;;;;5.73;3.20;;;30.70;54.80;;;;;;6290864;28;20087;-78
2021/06/03 12:48:41;;;;;;;7.68;3.50;;;30.60;53.50;;;;;;6276119;28;20278;-78
2021/06/03 12:51:47;;;;;;;6.03;3.77;;;30.30;55.10;;;;;;6275851;28;20029;-78
2021/06/03 12:54:48;;;;;;;9.63;3.33;;;30.10;55.60;;;;;;6275818;28;20036;-78
2021/06/03 12:57:49;;;;;;;4.30;2.83;;;30.00;54.70;;;;;;6258366;28;20111;-78
2021/06/03 13:00:50;;;;;;;4.63;2.83;;;30.50;54.70;;;;;;6275266;28;20027;-78
2021/06/03 13:03:57;;;;;;;8.03;3.20;;;30.10;51.60;;;;;;6275121;28;20044;-78
2021/06/03 13:06:58;;;;;;;6.53;3.22;;;30.20;54.70;;;;;;6251607;28;20032;-78
2021/06/03 13:10:07;;;;;;;7.77;3.33;;;30.40;56.40;;;;;;6242189;28;20039;-78
2021/06/03 13:13:09;;;;;;;5.13;3.22;;;30.60;55.20;;;;;;6258566;28;20263;-79
2021/06/03 13:16:10;;;;;;;7.35;3.40;;;30.60;54.70;;;;;;6252299;28;20488;-79
2021/06/03 13:19:12;;;;;;;7.20;3.40;;;30.70;55.10;;;;;;6241874;28;20028;-78
2021/06/03 13:22:14;;;;;;;10.38;3.47;;;30.80;54.90;;;;;;6258410;28;20111;-78
2021/06/03 13:25:14;;;;;;;;;;;30.60;55.10;;;;;;6293782;28;20036;-78
2021/06/03 13:28:20;;;;;;;6.10;3.13;;;30.50;54.50;;;;;;6275470;28;19952;-78
2021/06/03 13:31:21;;;;;;;4.78;2.95;;;30.50;54.40;;;;;;6252581;28;20127;-78
2021/06/03 13:34:26;;;;;;;7.57;2.80;;;30.40;54.30;;;;;;6243580;28;20021;-78
2021/06/03 13:37:28;;;;;;;6.28;3.30;;;30.10;52.80;;;;;;6293218;28;20131;-78
2021/06/03 13:40:29;;;;;;;7.28;3.40;;;29.90;53.70;;;;;;6292660;28;20052;-77
2021/06/03 13:43:31;;;;;;;4.63;3.20;;;29.80;55.70;;;;;;6293342;28;20037;-80
2021/06/03 13:46:32;;;;;;;5.47;2.60;;;30.00;55.50;;;;;;6242426;28;20024;-78
2021/06/03 13:49:32;;;;;;;5.97;3.03;;;29.70;60.30;;;;;;6246662;28;20418;-78
2021/06/03 13:53:02;;;;;;;8.37;2.80;;;29.80;60.70;;;;;;6282305;28;20035;-78
2021/06/03 13:56:10;;;;;;;6.30;2.95;;;29.80;53.70;;;;;;6227127;28;20039;-79
2021/06/03 13:59:11;;;;;;;6.22;2.95;;;29.90;58.60;;;;;;6317051;28;20494;-78
2021/06/03 14:02:16;;;;;;;4.20;2.80;;;30.10;63.40;;;;;;6317678;28;20032;-80
2021/06/03 14:05:17;;;;;;;7.53;3.53;;;30.20;62.50;;;;;;6257604;28;20037;-78
2021/06/03 14:08:18;;;;;;;5.88;3.30;;;30.00;60.50;;;;;;6293431;28;20027;-78
2021/06/03 14:14:34;;;;;;;5.30;3.13;;;29.80;55.50;;;;;;6292493;28;20441;-77
2021/06/03 14:17:35;;;;;;;8.23;3.67;;;29.80;56.00;;;;;;6274299;28;20037;-78
2021/06/03 14:20:36;;;;;;;;;;;29.70;55.20;;;;;;6275166;28;20028;-78
2021/06/03 14:23:40;;;;;;;5.80;3.30;;;29.50;54.00;;;;;;6279555;28;19920;-78
2021/06/03 14:26:40;;;;;;;5.45;3.20;;;29.70;56.10;;;;;;6275704;28;20029;-78
2021/06/03 14:29:48;;;;;;;8.10;3.40;;;29.70;54.10;;;;;;6297055;28;20087;-78
2021/06/03 14:32:57;;;;;;;7.75;3.47;;;29.70;55.30;;;;;;6279307;28;20382;-78
2021/06/03 14:35:59;;;;;;;6.05;3.38;;;29.90;55.90;;;;;;6247508;28;20032;-78
2021/06/03 14:38:59;;;;;;;;;;;29.70;55.60;;;;;;6302262;28;20532;-78
2021/06/03 14:42:00;;;;;;;8.33;3.83;;;29.70;54.00;;;;;;6303023;28;19934;-78
2021/06/03 14:45:18;;;;;;;6.13;3.37;;;29.60;55.30;;;;;;6262104;28;20068;-78
2021/06/03 14:48:25;;;;;;;5.57;3.13;;;29.50;53.70;;;;;;6252368;28;20029;-78
2021/06/03 14:51:25;;;;;;;6.38;3.25;;;29.60;54.80;;;;;;6262679;28;20539;-78
2021/06/03 14:54:26;;;;;;;5.50;3.20;;;29.50;55.40;;;;;;6297054;28;20048;-78
2021/06/03 14:57:28;;;;;;;8.67;3.83;;;29.40;55.90;;;;;;6297533;28;20439;-78
2021/06/03 15:00:30;;;;;;;4.40;3.13;;;29.40;55.30;;;;;;6310219;28;20024;-78
2021/06/03 15:03:32;;;;;;;;;;;29.40;55.40;;;;;;6302608;28;20024;-78
2021/06/03 15:06:33;;;;;;;6.03;3.28;;;30.10;55.80;;;;;;6320851;28;19908;-78
2021/06/03 15:09:33;;;;;;;7.13;3.37;;;29.50;55.90;;;;;;6302077;28;20036;-78
2021/06/03 15:12:34;;;;;;;6.83;3.40;;;29.70;55.20;;;;;;6261768;28;20115;-80
2021/06/03 15:15:36;;;;;;;7.00;3.38;;;29.70;52.00;;;;;;6260782;28;20032;-78
2021/06/03 15:18:37;;;;;;;6.43;3.35;;;29.70;53.10;;;;;;6272874;28;20115;-78
2021/06/03 15:21:37;;;;;;;6.43;3.30;;;29.70;53.70;;;;;;6277317;28;20039;-78
2021/06/03 15:24:38;;;;;;;6.73;3.67;;;29.70;55.10;;;;;;6267669;28;20128;-78
2021/06/03 15:27:39;;;;;;;7.78;3.47;;;29.70;54.70;;;;;;6302096;28;20028;-78
2021/06/03 15:30:41;;;;;;;5.93;3.20;;;29.70;55.00;;;;;;6301469;28;20035;-78
2021/06/03 15:33:41;;;;;;;5.97;3.35;;;29.80;53.80;;;;;;6283733;28;20668;-78
2021/06/03 15:36:42;;;;;;;11.60;3.87;;;29.80;54.40;;;;;;6301493;28;20032;-80
2021/06/03 15:39:42;;;;;;;4.17;3.43;;;29.80;53.00;;;;;;6319590;28;20048;-78
2021/06/03 15:42:45;;;;;;;9.20;3.50;;;29.70;63.00;;;;;;6301294;28;20039;-77
2021/06/03 15:45:45;;;;;;;7.03;3.75;;;29.60;54.50;;;;;;6300969;28;20470;-78
2021/06/03 15:48:47;;;;;;;6.28;3.53;;;29.60;53.80;;;;;;6284485;28;20115;-80
2021/06/03 15:51:47;;;;;;;6.40;3.45;;;29.50;53.20;;;;;;6301356;28;20476;-78
2021/06/03 15:54:50;;;;;;;4.20;3.10;;;29.40;52.00;;;;;;6284464;28;20028;-78
2021/06/03 15:57:53;;;;;;;7.28;3.30;;;29.50;55.60;;;;;;6319054;28;20606;-78
2021/06/03 16:00:53;;;;;;;6.75;3.45;;;29.50;58.50;;;;;;6268074;28;20429;-80
2021/06/03 16:03:54;;;;;;;4.97;2.87;;;29.50;67.90;;;;;;6300806;28;20036;-78
2021/06/03 16:06:55;;;;;;;4.35;3.00;;;29.30;68.80;;;;;;6284204;28;20397;-78
2021/06/03 16:09:55;;;;;;;5.80;3.40;;;29.30;79.90;;;;;;6319143;28;20106;-78